sensor_id;sensor_type;location;lat;lon;timestamp;P1;durP1;ratioP1;P2;durP2;ratioP2
14015;SDS011;7083;48.854;9.158;2023-09-18T00:00:09;470.37;;;437.30;;
14015;SDS011;7083;48.854;9.158;2023-09-18T00:02:37;468.17;;;435.60;;
14015;SDS011;7083;48.854;9.158;2023-09-18T00:05:04;460.70;;;427.73;;
14015;SDS011;7083;48.854;9.158;2023-09-18T00:07:32;454.70;;;422.93;;
14015;SDS011;7083;48.854;9.158;2023-09-18T00:09:59;441.17;;;410.67;;
14015;SDS011;7083;48.854;9.158;2023-09-18T00:12:27;446.43;;;415.27;;
14015;SDS011;7083;48.854;9.158;2023-09-18T00:14:56;431.47;;;401.63;;
14015;SDS011;7083;48.854;9.158;2023-09-18T00:17:23;453.00;;;421.23;;
14015;SDS011;7083;48.854;9.158;2023-09-18T00:19:50;447.80;;;416.47;;
14015;SDS011;7083;48.854;9.158;2023-09-18T00:22:31;430.27;;;400.80;;
14015;SDS011;7083;48.854;9.158;2023-09-18T00:25:03;429.57;;;400.40;;
14015;SDS011;7083;48.854;9.158;2023-09-18T00:27:37;402.70;;;375.13;;
14015;SDS011;7083;48.854;9.158;2023-09-18T00:30:05;403.77;;;376.47;;
14015;SDS011;7083;48.854;9.158;2023-09-18T00:32:32;399.00;;;372.27;;
14015;SDS011;7083;48.854;9.158;2023-09-18T00:34:59;378.63;;;353.60;;
14015;SDS011;7083;48.854;9.158;2023-09-18T00:37:26;374.07;;;349.27;;
14015;SDS011;7083;48.854;9.158;2023-09-18T00:39:53;358.63;;;334.80;;
14015;SDS011;7083;48.854;9.158;2023-09-18T00:42:20;366.23;;;342.17;;
14015;SDS011;7083;48.854;9.158;2023-09-18T00:44:49;342.17;;;319.63;;
14015;SDS011;7083;48.854;9.158;2023-09-18T00:47:16;316.83;;;296.23;;
14015;SDS011;7083;48.854;9.158;2023-09-18T00:49:44;317.53;;;296.67;;
14015;SDS011;7083;48.854;9.158;2023-09-18T00:52:12;310.10;;;289.90;;
14015;SDS011;7083;48.854;9.158;2023-09-18T00:54:42;301.63;;;282.43;;
14015;SDS011;7083;48.854;9.158;2023-09-18T00:57:09;290.57;;;271.83;;
14015;SDS011;7083;48.854;9.158;2023-09-18T00:59:36;286.67;;;268.27;;
14015;SDS011;7083;48.854;9.158;2023-09-18T01:02:04;276.60;;;259.20;;
14015;SDS011;7083;48.854;9.158;2023-09-18T01:04:40;262.27;;;246.40;;
14015;SDS011;7083;48.854;9.158;2023-09-18T01:07:15;248.67;;;233.57;;
14015;SDS011;7083;48.854;9.158;2023-09-18T01:09:43;239.47;;;225.20;;
14015;SDS011;7083;48.854;9.158;2023-09-18T01:12:11;240.90;;;226.90;;
14015;SDS011;7083;48.854;9.158;2023-09-18T01:14:44;219.77;;;207.40;;
14015;SDS011;7083;48.854;9.158;2023-09-18T01:17:16;209.77;;;198.00;;
14015;SDS011;7083;48.854;9.158;2023-09-18T01:19:44;213.20;;;201.57;;
14015;SDS011;7083;48.854;9.158;2023-09-18T01:22:12;220.73;;;208.57;;
14015;SDS011;7083;48.854;9.158;2023-09-18T01:24:41;224.13;;;212.70;;
14015;SDS011;7083;48.854;9.158;2023-09-18T01:27:09;222.10;;;210.50;;
14015;SDS011;7083;48.854;9.158;2023-09-18T01:29:36;391.57;;;370.43;;
14015;SDS011;7083;48.854;9.158;2023-09-18T01:32:03;429.70;;;405.53;;
14015;SDS011;7083;48.854;9.158;2023-09-18T01:34:31;479.03;;;450.83;;
14015;SDS011;7083;48.854;9.158;2023-09-18T01:37:01;496.60;;;467.07;;
14015;SDS011;7083;48.854;9.158;2023-09-18T01:39:32;507.80;;;477.00;;
14015;SDS011;7083;48.854;9.158;2023-09-18T01:42:02;539.37;;;505.33;;
14015;SDS011;7083;48.854;9.158;2023-09-18T01:44:37;561.00;;;524.97;;
14015;SDS011;7083;48.854;9.158;2023-09-18T01:47:06;600.43;;;560.87;;
14015;SDS011;7083;48.854;9.158;2023-09-18T01:49:34;621.70;;;579.93;;
14015;SDS011;7083;48.854;9.158;2023-09-18T01:52:13;658.83;;;613.70;;
14015;SDS011;7083;48.854;9.158;2023-09-18T01:54:40;677.53;;;630.83;;
14015;SDS011;7083;48.854;9.158;2023-09-18T01:57:09;614.43;;;574.87;;
14015;SDS011;7083;48.854;9.158;2023-09-18T01:59:37;612.67;;;573.77;;
14015;SDS011;7083;48.854;9.158;2023-09-18T02:02:04;615.37;;;576.37;;
14015;SDS011;7083;48.854;9.158;2023-09-18T02:04:34;606.97;;;568.60;;
14015;SDS011;7083;48.854;9.158;2023-09-18T02:07:01;600.53;;;562.97;;
14015;SDS011;7083;48.854;9.158;2023-09-18T02:09:29;420.17;;;399.33;;
14015;SDS011;7083;48.854;9.158;2023-09-18T02:11:56;541.77;;;510.33;;
14015;SDS011;7083;48.854;9.158;2023-09-18T02:14:24;535.37;;;504.13;;
14015;SDS011;7083;48.854;9.158;2023-09-18T02:16:51;503.53;;;475.43;;
14015;SDS011;7083;48.854;9.158;2023-09-18T02:19:19;495.63;;;468.27;;
14015;SDS011;7083;48.854;9.158;2023-09-18T02:21:46;486.10;;;459.23;;
14015;SDS011;7083;48.854;9.158;2023-09-18T02:24:13;474.43;;;448.77;;
14015;SDS011;7083;48.854;9.158;2023-09-18T02:26:40;475.53;;;449.60;;
14015;SDS011;7083;48.854;9.158;2023-09-18T02:29:08;469.03;;;444.13;;
14015;SDS011;7083;48.854;9.158;2023-09-18T02:31:37;463.90;;;439.13;;
14015;SDS011;7083;48.854;9.158;2023-09-18T02:34:04;472.00;;;446.10;;
14015;SDS011;7083;48.854;9.158;2023-09-18T02:36:34;472.13;;;446.00;;
14015;SDS011;7083;48.854;9.158;2023-09-18T02:39:01;467.63;;;442.40;;
14015;SDS011;7083;48.854;9.158;2023-09-18T02:41:29;440.27;;;416.93;;
14015;SDS011;7083;48.854;9.158;2023-09-18T02:43:56;445.83;;;422.43;;
14015;SDS011;7083;48.854;9.158;2023-09-18T02:46:23;435.20;;;412.67;;
14015;SDS011;7083;48.854;9.158;2023-09-18T02:48:52;755.17;;;701.90;;
14015;SDS011;7083;48.854;9.158;2023-09-18T02:51:19;400.30;;;379.77;;
14015;SDS011;7083;48.854;9.158;2023-09-18T02:53:46;393.13;;;373.37;;
14015;SDS011;7083;48.854;9.158;2023-09-18T02:56:13;392.30;;;372.53;;
14015;SDS011;7083;48.854;9.158;2023-09-18T02:58:40;379.87;;;360.87;;
14015;SDS011;7083;48.854;9.158;2023-09-18T03:01:07;374.23;;;355.10;;
14015;SDS011;7083;48.854;9.158;2023-09-18T03:03:34;388.53;;;368.60;;
14015;SDS011;7083;48.854;9.158;2023-09-18T03:06:03;391.27;;;371.33;;
14015;SDS011;7083;48.854;9.158;2023-09-18T03:08:31;392.43;;;372.30;;
14015;SDS011;7083;48.854;9.158;2023-09-18T03:10:59;381.47;;;362.03;;
14015;SDS011;7083;48.854;9.158;2023-09-18T03:13:28;388.77;;;368.33;;
14015;SDS011;7083;48.854;9.158;2023-09-18T03:15:55;375.50;;;356.47;;
14015;SDS011;7083;48.854;9.158;2023-09-18T03:18:22;374.73;;;355.10;;
14015;SDS011;7083;48.854;9.158;2023-09-18T03:20:49;402.20;;;380.50;;
14015;SDS011;7083;48.854;9.158;2023-09-18T03:23:17;395.57;;;374.13;;
14015;SDS011;7083;48.854;9.158;2023-09-18T03:25:44;401.27;;;379.10;;
14015;SDS011;7083;48.854;9.158;2023-09-18T03:28:12;404.43;;;382.37;;
14015;SDS011;7083;48.854;9.158;2023-09-18T03:30:39;414.77;;;391.80;;
14015;SDS011;7083;48.854;9.158;2023-09-18T03:33:06;429.57;;;405.47;;
14015;SDS011;7083;48.854;9.158;2023-09-18T03:35:37;454.43;;;428.33;;
14015;SDS011;7083;48.854;9.158;2023-09-18T03:38:11;463.37;;;435.10;;
14015;SDS011;7083;48.854;9.158;2023-09-18T03:40:40;485.23;;;456.00;;
14015;SDS011;7083;48.854;9.158;2023-09-18T03:43:07;507.17;;;475.77;;
14015;SDS011;7083;48.854;9.158;2023-09-18T03:45:35;537.10;;;503.73;;
14015;SDS011;7083;48.854;9.158;2023-09-18T03:48:03;561.00;;;525.07;;
14015;SDS011;7083;48.854;9.158;2023-09-18T03:50:30;597.00;;;557.13;;
14015;SDS011;7083;48.854;9.158;2023-09-18T03:52:57;598.97;;;559.23;;
14015;SDS011;7083;48.854;9.158;2023-09-18T03:55:24;627.63;;;585.10;;
14015;SDS011;7083;48.854;9.158;2023-09-18T03:57:53;639.27;;;595.27;;
14015;SDS011;7083;48.854;9.158;2023-09-18T04:00:21;644.70;;;600.27;;
14015;SDS011;7083;48.854;9.158;2023-09-18T04:02:48;654.03;;;608.43;;
14015;SDS011;7083;48.854;9.158;2023-09-18T04:05:15;652.77;;;606.63;;
14015;SDS011;7083;48.854;9.158;2023-09-18T04:07:42;661.47;;;614.77;;
14015;SDS011;7083;48.854;9.158;2023-09-18T04:10:11;667.23;;;620.23;;
14015;SDS011;7083;48.854;9.158;2023-09-18T04:12:43;660.97;;;614.23;;
14015;SDS011;7083;48.854;9.158;2023-09-18T04:15:13;667.17;;;620.40;;
14015;SDS011;7083;48.854;9.158;2023-09-18T04:17:40;674.60;;;627.43;;
14015;SDS011;7083;48.854;9.158;2023-09-18T04:20:07;383.17;;;360.70;;
14015;SDS011;7083;48.854;9.158;2023-09-18T04:22:35;382.67;;;360.03;;
14015;SDS011;7083;48.854;9.158;2023-09-18T04:25:02;365.70;;;345.33;;
14015;SDS011;7083;48.854;9.158;2023-09-18T04:27:30;277.97;;;260.90;;
14015;SDS011;7083;48.854;9.158;2023-09-18T04:29:57;343.17;;;322.67;;
14015;SDS011;7083;48.854;9.158;2023-09-18T04:32:28;365.90;;;346.30;;
14015;SDS011;7083;48.854;9.158;2023-09-18T04:34:55;445.90;;;421.83;;
14015;SDS011;7083;48.854;9.158;2023-09-18T04:37:22;482.83;;;455.60;;
14015;SDS011;7083;48.854;9.158;2023-09-18T04:39:49;478.87;;;451.77;;
14015;SDS011;7083;48.854;9.158;2023-09-18T04:42:17;447.37;;;423.00;;
14015;SDS011;7083;48.854;9.158;2023-09-18T04:44:44;443.50;;;418.47;;
14015;SDS011;7083;48.854;9.158;2023-09-18T04:47:11;458.33;;;431.77;;
14015;SDS011;7083;48.854;9.158;2023-09-18T04:49:40;457.27;;;430.63;;
14015;SDS011;7083;48.854;9.158;2023-09-18T04:52:09;437.07;;;411.70;;
14015;SDS011;7083;48.854;9.158;2023-09-18T04:54:36;443.50;;;417.10;;
14015;SDS011;7083;48.854;9.158;2023-09-18T04:57:03;466.57;;;438.40;;
14015;SDS011;7083;48.854;9.158;2023-09-18T04:59:30;453.07;;;425.40;;
14015;SDS011;7083;48.854;9.158;2023-09-18T05:01:57;478.17;;;447.80;;
14015;SDS011;7083;48.854;9.158;2023-09-18T05:04:24;494.83;;;463.50;;
14015;SDS011;7083;48.854;9.158;2023-09-18T05:06:53;481.43;;;450.50;;
14015;SDS011;7083;48.854;9.158;2023-09-18T05:09:21;485.63;;;454.37;;
14015;SDS011;7083;48.854;9.158;2023-09-18T05:11:48;491.63;;;459.77;;
14015;SDS011;7083;48.854;9.158;2023-09-18T05:14:16;452.13;;;423.90;;
14015;SDS011;7083;48.854;9.158;2023-09-18T05:16:43;431.67;;;404.60;;
14015;SDS011;7083;48.854;9.158;2023-09-18T05:19:10;408.63;;;383.33;;
14015;SDS011;7083;48.854;9.158;2023-09-18T05:21:37;418.23;;;392.20;;
14015;SDS011;7083;48.854;9.158;2023-09-18T05:24:05;389.53;;;365.73;;
14015;SDS011;7083;48.854;9.158;2023-09-18T05:26:32;739.67;;;685.20;;
14015;SDS011;7083;48.854;9.158;2023-09-18T05:29:00;726.33;;;672.67;;
14015;SDS011;7083;48.854;9.158;2023-09-18T05:31:28;710.77;;;658.93;;
14015;SDS011;7083;48.854;9.158;2023-09-18T05:33:55;666.03;;;618.30;;
14015;SDS011;7083;48.854;9.158;2023-09-18T05:36:22;626.30;;;582.47;;
14015;SDS011;7083;48.854;9.158;2023-09-18T05:38:49;543.13;;;506.17;;
14015;SDS011;7083;48.854;9.158;2023-09-18T05:41:18;417.03;;;388.57;;
14015;SDS011;7083;48.854;9.158;2023-09-18T05:43:46;241.30;;;229.47;;
14015;SDS011;7083;48.854;9.158;2023-09-18T05:46:13;233.47;;;222.07;;
14015;SDS011;7083;48.854;9.158;2023-09-18T05:48:40;282.33;;;267.77;;
14015;SDS011;7083;48.854;9.158;2023-09-18T05:51:07;356.00;;;337.47;;
14015;SDS011;7083;48.854;9.158;2023-09-18T05:53:34;497.67;;;467.83;;
14015;SDS011;7083;48.854;9.158;2023-09-18T05:56:03;461.37;;;435.20;;
14015;SDS011;7083;48.854;9.158;2023-09-18T05:58:32;446.23;;;422.13;;
14015;SDS011;7083;48.854;9.158;2023-09-18T06:01:00;456.03;;;431.67;;
14015;SDS011;7083;48.854;9.158;2023-09-18T06:03:28;566.30;;;524.50;;
14015;SDS011;7083;48.854;9.158;2023-09-18T06:06:00;596.07;;;552.57;;
14015;SDS011;7083;48.854;9.158;2023-09-18T06:08:27;609.73;;;564.80;;
14015;SDS011;7083;48.854;9.158;2023-09-18T06:10:55;586.33;;;543.60;;
14015;SDS011;7083;48.854;9.158;2023-09-18T06:13:23;558.73;;;520.23;;
14015;SDS011;7083;48.854;9.158;2023-09-18T06:15:52;529.70;;;494.27;;
14015;SDS011;7083;48.854;9.158;2023-09-18T06:18:19;425.17;;;401.50;;
14015;SDS011;7083;48.854;9.158;2023-09-18T06:20:46;435.10;;;408.50;;
14015;SDS011;7083;48.854;9.158;2023-09-18T06:23:13;488.77;;;457.63;;
14015;SDS011;7083;48.854;9.158;2023-09-18T06:25:40;530.60;;;495.67;;
14015;SDS011;7083;48.854;9.158;2023-09-18T06:28:07;575.80;;;537.43;;
14015;SDS011;7083;48.854;9.158;2023-09-18T06:30:35;632.47;;;589.70;;
14015;SDS011;7083;48.854;9.158;2023-09-18T06:33:04;647.23;;;602.70;;
14015;SDS011;7083;48.854;9.158;2023-09-18T06:35:31;371.23;;;351.37;;
14015;SDS011;7083;48.854;9.158;2023-09-18T06:37:58;343.33;;;326.30;;
14015;SDS011;7083;48.854;9.158;2023-09-18T06:40:25;306.60;;;291.87;;
14015;SDS011;7083;48.854;9.158;2023-09-18T06:42:57;282.90;;;268.93;;
14015;SDS011;7083;48.854;9.158;2023-09-18T06:45:25;139.20;;;128.30;;
14015;SDS011;7083;48.854;9.158;2023-09-18T06:47:52;303.70;;;286.03;;
14015;SDS011;7083;48.854;9.158;2023-09-18T06:50:20;336.40;;;317.97;;
14015;SDS011;7083;48.854;9.158;2023-09-18T06:52:47;390.23;;;370.33;;
14015;SDS011;7083;48.854;9.158;2023-09-18T06:55:14;465.60;;;438.53;;
14015;SDS011;7083;48.854;9.158;2023-09-18T06:57:42;407.40;;;382.53;;
14015;SDS011;7083;48.854;9.158;2023-09-18T07:00:10;447.87;;;423.83;;
14015;SDS011;7083;48.854;9.158;2023-09-18T07:02:39;420.63;;;393.33;;
14015;SDS011;7083;48.854;9.158;2023-09-18T07:05:06;441.37;;;412.60;;
14015;SDS011;7083;48.854;9.158;2023-09-18T07:07:34;458.97;;;429.03;;
14015;SDS011;7083;48.854;9.158;2023-09-18T07:10:02;479.40;;;448.60;;
14015;SDS011;7083;48.854;9.158;2023-09-18T07:12:29;485.07;;;453.90;;
14015;SDS011;7083;48.854;9.158;2023-09-18T07:14:56;493.03;;;460.70;;
14015;SDS011;7083;48.854;9.158;2023-09-18T07:17:23;466.40;;;436.40;;
14015;SDS011;7083;48.854;9.158;2023-09-18T07:19:50;439.27;;;410.80;;
14015;SDS011;7083;48.854;9.158;2023-09-18T07:22:17;449.93;;;420.03;;
14015;SDS011;7083;48.854;9.158;2023-09-18T07:24:46;452.97;;;421.63;;
14015;SDS011;7083;48.854;9.158;2023-09-18T07:27:13;474.50;;;440.23;;
14015;SDS011;7083;48.854;9.158;2023-09-18T07:29:40;513.70;;;477.57;;
14015;SDS011;7083;48.854;9.158;2023-09-18T07:32:07;450.33;;;425.73;;
14015;SDS011;7083;48.854;9.158;2023-09-18T07:34:34;495.83;;;466.37;;
14015;SDS011;7083;48.854;9.158;2023-09-18T07:37:02;379.17;;;356.33;;
14015;SDS011;7083;48.854;9.158;2023-09-18T07:39:29;345.30;;;324.17;;
14015;SDS011;7083;48.854;9.158;2023-09-18T07:41:57;362.73;;;343.70;;
14015;SDS011;7083;48.854;9.158;2023-09-18T07:44:25;371.63;;;352.20;;
14015;SDS011;7083;48.854;9.158;2023-09-18T07:46:52;393.53;;;372.23;;
14015;SDS011;7083;48.854;9.158;2023-09-18T07:49:19;336.27;;;319.53;;
14015;SDS011;7083;48.854;9.158;2023-09-18T07:51:46;346.23;;;328.60;;
14015;SDS011;7083;48.854;9.158;2023-09-18T07:54:14;364.70;;;345.77;;
14015;SDS011;7083;48.854;9.158;2023-09-18T07:56:41;370.93;;;352.17;;
14015;SDS011;7083;48.854;9.158;2023-09-18T07:59:10;373.63;;;354.27;;
14015;SDS011;7083;48.854;9.158;2023-09-18T08:01:39;378.47;;;358.83;;
14015;SDS011;7083;48.854;9.158;2023-09-18T08:04:06;386.13;;;365.53;;
14015;SDS011;7083;48.854;9.158;2023-09-18T08:06:33;399.33;;;378.00;;
14015;SDS011;7083;48.854;9.158;2023-09-18T08:09:00;417.40;;;394.77;;
14015;SDS011;7083;48.854;9.158;2023-09-18T08:11:29;412.63;;;390.33;;
14015;SDS011;7083;48.854;9.158;2023-09-18T08:13:57;429.90;;;406.10;;
14015;SDS011;7083;48.854;9.158;2023-09-18T08:16:26;420.70;;;397.53;;
14015;SDS011;7083;48.854;9.158;2023-09-18T08:18:54;420.73;;;396.80;;
14015;SDS011;7083;48.854;9.158;2023-09-18T08:21:21;438.43;;;413.13;;
14015;SDS011;7083;48.854;9.158;2023-09-18T08:23:49;440.07;;;414.37;;
14015;SDS011;7083;48.854;9.158;2023-09-18T08:26:16;436.20;;;410.77;;
14015;SDS011;7083;48.854;9.158;2023-09-18T08:28:44;453.03;;;426.33;;
14015;SDS011;7083;48.854;9.158;2023-09-18T08:31:11;461.03;;;433.20;;
14015;SDS011;7083;48.854;9.158;2023-09-18T08:33:40;458.43;;;431.13;;
14015;SDS011;7083;48.854;9.158;2023-09-18T08:36:07;488.43;;;457.93;;
14015;SDS011;7083;48.854;9.158;2023-09-18T08:38:34;480.70;;;451.50;;
14015;SDS011;7083;48.854;9.158;2023-09-18T08:41:01;469.13;;;440.90;;
14015;SDS011;7083;48.854;9.158;2023-09-18T08:43:29;446.97;;;420.17;;
14015;SDS011;7083;48.854;9.158;2023-09-18T08:45:57;444.47;;;417.50;;
14015;SDS011;7083;48.854;9.158;2023-09-18T08:48:28;433.50;;;407.57;;
14015;SDS011;7083;48.854;9.158;2023-09-18T08:51:01;454.13;;;426.57;;
14015;SDS011;7083;48.854;9.158;2023-09-18T08:53:29;414.73;;;390.70;;
14015;SDS011;7083;48.854;9.158;2023-09-18T08:55:57;402.70;;;379.37;;
14015;SDS011;7083;48.854;9.158;2023-09-18T08:58:26;386.97;;;364.50;;
14015;SDS011;7083;48.854;9.158;2023-09-18T09:00:54;392.03;;;369.40;;
14015;SDS011;7083;48.854;9.158;2023-09-18T09:03:22;392.80;;;370.67;;
14015;SDS011;7083;48.854;9.158;2023-09-18T09:05:49;397.37;;;375.07;;
14015;SDS011;7083;48.854;9.158;2023-09-18T09:08:18;407.53;;;384.83;;
14015;SDS011;7083;48.854;9.158;2023-09-18T09:10:46;395.70;;;374.17;;
14015;SDS011;7083;48.854;9.158;2023-09-18T09:13:13;401.27;;;379.33;;
14015;SDS011;7083;48.854;9.158;2023-09-18T09:15:43;406.50;;;384.37;;
14015;SDS011;7083;48.854;9.158;2023-09-18T09:18:11;417.53;;;395.10;;
14015;SDS011;7083;48.854;9.158;2023-09-18T09:20:39;391.43;;;371.10;;
14015;SDS011;7083;48.854;9.158;2023-09-18T09:23:08;372.90;;;353.77;;
14015;SDS011;7083;48.854;9.158;2023-09-18T09:25:37;369.13;;;350.03;;
14015;SDS011;7083;48.854;9.158;2023-09-18T09:28:04;365.10;;;346.43;;
14015;SDS011;7083;48.854;9.158;2023-09-18T09:30:32;391.20;;;370.47;;
14015;SDS011;7083;48.854;9.158;2023-09-18T09:33:01;381.80;;;361.97;;
14015;SDS011;7083;48.854;9.158;2023-09-18T09:35:29;387.03;;;366.50;;
14015;SDS011;7083;48.854;9.158;2023-09-18T09:37:57;412.57;;;390.27;;
14015;SDS011;7083;48.854;9.158;2023-09-18T09:40:25;454.43;;;429.50;;
14015;SDS011;7083;48.854;9.158;2023-09-18T09:42:54;497.57;;;469.07;;
14015;SDS011;7083;48.854;9.158;2023-09-18T09:45:26;544.87;;;512.37;;
14015;SDS011;7083;48.854;9.158;2023-09-18T09:47:54;576.47;;;540.43;;
14015;SDS011;7083;48.854;9.158;2023-09-18T09:50:21;579.57;;;542.70;;
14015;SDS011;7083;48.854;9.158;2023-09-18T09:52:51;577.53;;;540.97;;
14015;SDS011;7083;48.854;9.158;2023-09-18T09:55:18;556.40;;;521.23;;
14015;SDS011;7083;48.854;9.158;2023-09-18T09:57:49;536.37;;;501.83;;
14015;SDS011;7083;48.854;9.158;2023-09-18T10:00:18;521.17;;;487.10;;
14015;SDS011;7083;48.854;9.158;2023-09-18T10:02:52;528.43;;;493.60;;
14015;SDS011;7083;48.854;9.158;2023-09-18T10:05:20;543.47;;;506.60;;
14015;SDS011;7083;48.854;9.158;2023-09-18T10:07:47;540.33;;;503.17;;
14015;SDS011;7083;48.854;9.158;2023-09-18T10:10:14;546.90;;;508.67;;
14015;SDS011;7083;48.854;9.158;2023-09-18T10:12:41;590.50;;;547.67;;
14015;SDS011;7083;48.854;9.158;2023-09-18T10:15:10;605.60;;;560.53;;
14015;SDS011;7083;48.854;9.158;2023-09-18T10:17:42;602.27;;;557.90;;
14015;SDS011;7083;48.854;9.158;2023-09-18T10:20:12;635.40;;;588.70;;
14015;SDS011;7083;48.854;9.158;2023-09-18T10:22:44;637.20;;;590.43;;
14015;SDS011;7083;48.854;9.158;2023-09-18T10:25:13;663.33;;;614.83;;
14015;SDS011;7083;48.854;9.158;2023-09-18T10:27:43;670.63;;;621.77;;
14015;SDS011;7083;48.854;9.158;2023-09-18T10:30:11;648.37;;;601.00;;
14015;SDS011;7083;48.854;9.158;2023-09-18T10:32:39;661.13;;;612.97;;
14015;SDS011;7083;48.854;9.158;2023-09-18T10:35:08;335.00;;;314.83;;
14015;SDS011;7083;48.854;9.158;2023-09-18T10:37:37;346.83;;;325.33;;
14015;SDS011;7083;48.854;9.158;2023-09-18T10:40:05;380.07;;;356.67;;
14015;SDS011;7083;48.854;9.158;2023-09-18T10:42:33;390.97;;;366.87;;
14015;SDS011;7083;48.854;9.158;2023-09-18T10:45:01;402.57;;;377.70;;
14015;SDS011;7083;48.854;9.158;2023-09-18T10:47:29;410.83;;;385.67;;
14015;SDS011;7083;48.854;9.158;2023-09-18T10:49:57;419.30;;;393.97;;
14015;SDS011;7083;48.854;9.158;2023-09-18T10:52:26;415.03;;;390.10;;
14015;SDS011;7083;48.854;9.158;2023-09-18T10:54:53;447.43;;;420.17;;
14015;SDS011;7083;48.854;9.158;2023-09-18T10:57:20;450.73;;;423.10;;
14015;SDS011;7083;48.854;9.158;2023-09-18T10:59:47;451.10;;;423.47;;
14015;SDS011;7083;48.854;9.158;2023-09-18T11:02:14;444.10;;;416.03;;
14015;SDS011;7083;48.854;9.158;2023-09-18T11:04:42;451.93;;;424.43;;
14015;SDS011;7083;48.854;9.158;2023-09-18T11:07:09;461.97;;;433.50;;
14015;SDS011;7083;48.854;9.158;2023-09-18T11:09:47;476.77;;;446.90;;
14015;SDS011;7083;48.854;9.158;2023-09-18T11:12:14;471.27;;;442.17;;
14015;SDS011;7083;48.854;9.158;2023-09-18T11:14:45;468.23;;;439.47;;
14015;SDS011;7083;48.854;9.158;2023-09-18T11:17:27;482.10;;;451.57;;
14015;SDS011;7083;48.854;9.158;2023-09-18T11:20:01;482.93;;;453.27;;
14015;SDS011;7083;48.854;9.158;2023-09-18T11:22:29;464.20;;;436.33;;
14015;SDS011;7083;48.854;9.158;2023-09-18T11:27:45;496.43;;;465.93;;
14015;SDS011;7083;48.854;9.158;2023-09-18T11:30:19;490.33;;;459.93;;
14015;SDS011;7083;48.854;9.158;2023-09-18T11:32:46;504.33;;;473.77;;
14015;SDS011;7083;48.854;9.158;2023-09-18T11:35:13;517.90;;;487.03;;
14015;SDS011;7083;48.854;9.158;2023-09-18T11:37:42;510.67;;;481.40;;
14015;SDS011;7083;48.854;9.158;2023-09-18T11:45:41;468.53;;;443.20;;
14015;SDS011;7083;48.854;9.158;2023-09-18T11:48:09;451.83;;;428.10;;
14015;SDS011;7083;48.854;9.158;2023-09-18T11:50:37;453.73;;;429.67;;
14015;SDS011;7083;48.854;9.158;2023-09-18T11:53:05;440.00;;;417.07;;
14015;SDS011;7083;48.854;9.158;2023-09-18T11:55:32;416.20;;;395.23;;
14015;SDS011;7083;48.854;9.158;2023-09-18T11:57:59;395.77;;;376.20;;
14015;SDS011;7083;48.854;9.158;2023-09-18T12:00:27;364.23;;;346.60;;
14015;SDS011;7083;48.854;9.158;2023-09-18T12:02:56;357.83;;;340.47;;
14015;SDS011;7083;48.854;9.158;2023-09-18T12:05:24;291.50;;;277.70;;
14015;SDS011;7083;48.854;9.158;2023-09-18T12:07:51;307.37;;;292.47;;
14015;SDS011;7083;48.854;9.158;2023-09-18T12:10:20;321.70;;;306.40;;
14015;SDS011;7083;48.854;9.158;2023-09-18T12:12:47;323.93;;;308.47;;
14015;SDS011;7083;48.854;9.158;2023-09-18T12:15:17;335.93;;;320.03;;
14015;SDS011;7083;48.854;9.158;2023-09-18T12:17:45;343.50;;;326.83;;
14015;SDS011;7083;48.854;9.158;2023-09-18T12:20:16;344.60;;;327.80;;
14015;SDS011;7083;48.854;9.158;2023-09-18T12:22:46;347.87;;;330.97;;
14015;SDS011;7083;48.854;9.158;2023-09-18T12:25:14;346.03;;;329.30;;
14015;SDS011;7083;48.854;9.158;2023-09-18T12:27:43;336.67;;;320.10;;
14015;SDS011;7083;48.854;9.158;2023-09-18T12:30:10;343.00;;;326.30;;
14015;SDS011;7083;48.854;9.158;2023-09-18T12:32:40;339.57;;;323.33;;
14015;SDS011;7083;48.854;9.158;2023-09-18T12:35:07;350.33;;;333.63;;
14015;SDS011;7083;48.854;9.158;2023-09-18T12:37:35;344.17;;;327.60;;
14015;SDS011;7083;48.854;9.158;2023-09-18T12:40:06;328.13;;;312.87;;
14015;SDS011;7083;48.854;9.158;2023-09-18T12:42:36;323.30;;;307.97;;
14015;SDS011;7083;48.854;9.158;2023-09-18T12:45:05;327.80;;;312.17;;
14015;SDS011;7083;48.854;9.158;2023-09-18T12:47:33;327.57;;;312.00;;
14015;SDS011;7083;48.854;9.158;2023-09-18T12:50:01;311.77;;;296.57;;
14015;SDS011;7083;48.854;9.158;2023-09-18T12:52:29;316.53;;;301.20;;
14015;SDS011;7083;48.854;9.158;2023-09-18T12:54:58;296.93;;;281.87;;
14015;SDS011;7083;48.854;9.158;2023-09-18T12:57:26;276.17;;;261.67;;
14015;SDS011;7083;48.854;9.158;2023-09-18T12:59:54;275.70;;;260.90;;
14015;SDS011;7083;48.854;9.158;2023-09-18T13:02:21;316.73;;;299.00;;
14015;SDS011;7083;48.854;9.158;2023-09-18T13:04:51;328.00;;;309.57;;
14015;SDS011;7083;48.854;9.158;2023-09-18T13:07:19;356.20;;;335.97;;
14015;SDS011;7083;48.854;9.158;2023-09-18T13:09:58;375.20;;;353.47;;
14015;SDS011;7083;48.854;9.158;2023-09-18T13:12:38;399.07;;;376.03;;
14015;SDS011;7083;48.854;9.158;2023-09-18T13:15:06;376.80;;;355.27;;
14015;SDS011;7083;48.854;9.158;2023-09-18T13:17:36;355.07;;;334.57;;
14015;SDS011;7083;48.854;9.158;2023-09-18T13:20:06;369.23;;;347.67;;
14015;SDS011;7083;48.854;9.158;2023-09-18T13:22:34;391.70;;;368.77;;
14015;SDS011;7083;48.854;9.158;2023-09-18T13:25:03;372.43;;;350.10;;
14015;SDS011;7083;48.854;9.158;2023-09-18T13:27:30;400.27;;;376.33;;
14015;SDS011;7083;48.854;9.158;2023-09-18T13:29:57;377.73;;;355.53;;
14015;SDS011;7083;48.854;9.158;2023-09-18T13:32:31;383.23;;;360.83;;
14015;SDS011;7083;48.854;9.158;2023-09-18T13:35:02;385.90;;;363.53;;
14015;SDS011;7083;48.854;9.158;2023-09-18T13:37:31;380.07;;;358.17;;
14015;SDS011;7083;48.854;9.158;2023-09-18T13:40:05;384.93;;;362.20;;
14015;SDS011;7083;48.854;9.158;2023-09-18T13:42:33;378.60;;;356.07;;
14015;SDS011;7083;48.854;9.158;2023-09-18T13:45:00;350.10;;;329.73;;
14015;SDS011;7083;48.854;9.158;2023-09-18T13:47:29;373.40;;;351.30;;
14015;SDS011;7083;48.854;9.158;2023-09-18T13:49:56;267.50;;;252.27;;
14015;SDS011;7083;48.854;9.158;2023-09-18T13:52:25;226.60;;;214.30;;
14015;SDS011;7083;48.854;9.158;2023-09-18T13:54:52;184.57;;;174.73;;
14015;SDS011;7083;48.854;9.158;2023-09-18T13:57:20;182.50;;;172.30;;
14015;SDS011;7083;48.854;9.158;2023-09-18T13:59:48;180.27;;;170.03;;
14015;SDS011;7083;48.854;9.158;2023-09-18T14:02:15;159.90;;;151.03;;
14015;SDS011;7083;48.854;9.158;2023-09-18T14:04:42;159.37;;;150.50;;
14015;SDS011;7083;48.854;9.158;2023-09-18T14:07:10;133.57;;;126.00;;
14015;SDS011;7083;48.854;9.158;2023-09-18T14:09:37;142.13;;;133.93;;
14015;SDS011;7083;48.854;9.158;2023-09-18T14:12:04;136.50;;;128.60;;
14015;SDS011;7083;48.854;9.158;2023-09-18T14:14:33;127.60;;;120.43;;
14015;SDS011;7083;48.854;9.158;2023-09-18T14:17:01;140.77;;;132.37;;
14015;SDS011;7083;48.854;9.158;2023-09-18T14:19:28;132.20;;;124.43;;
14015;SDS011;7083;48.854;9.158;2023-09-18T14:21:55;124.30;;;116.93;;